Time;durP1;ratioP1;P1;durP2;ratioP2;P2;SDS_P1;SDS_P2;PMS_P1;PMS_P2;Temp;Humidity;BMP_temperature;BMP_pressure;BME280_temperature;BME280_humidity;BME280_pressure;Samples;Min_cycle;Max_cycle;Signal;HPM_P1;HPM_P2
2023/08/03 00:01:54;;;;;;;0.10;0.10;;;13.60;51.00;;;;;;5071484;28;20206;-47
2023/08/03 00:04:24;;;;;;;0.10;0.10;;;13.60;51.00;;;;;;5071276;28;20199;-46
2023/08/03 00:06:55;;;;;;;0.10;0.10;;;13.60;51.00;;;;;;5071298;28;20226;-45
2023/08/03 00:09:28;;;;;;;0.10;0.10;;;13.60;51.00;;;;;;5071961;28;20642;-45
2023/08/03 00:11:58;;;;;;;0.10;0.10;;;13.60;51.00;;;;;;5071670;28;20555;-45
2023/08/03 00:14:29;;;;;;;0.10;0.10;;;13.70;51.00;;;;;;5071470;28;20199;-46
2023/08/03 00:16:59;;;;;;;0.10;0.10;;;13.70;51.00;;;;;;5071286;28;20221;-49
2023/08/03 00:19:30;;;;;;;0.10;0.10;;;13.70;51.00;;;;;;5071246;28;20300;-50
2023/08/03 00:22:01;;;;;;;0.10;0.10;;;13.70;51.00;;;;;;5071079;28;20195;-45
2023/08/03 00:24:33;;;;;;;0.10;0.10;;;13.80;51.00;;;;;;5070879;28;20207;-51
2023/08/03 00:27:04;;;;;;;0.10;0.10;;;13.70;50.90;;;;;;5071034;28;20743;-45
2023/08/03 00:29:34;;;;;;;0.10;0.10;;;13.80;51.00;;;;;;5071218;28;20559;-50
2023/08/03 00:32:06;;;;;;;0.10;0.10;;;13.80;51.00;;;;;;5071219;28;20190;-50
2023/08/03 00:34:36;;;;;;;0.10;0.10;;;13.80;51.00;;;;;;5071602;28;20199;-45
2023/08/03 00:37:07;;;;;;;0.10;0.10;;;13.80;51.00;;;;;;5075212;28;20199;-46
2023/08/03 00:39:40;;;;;;;0.10;0.10;;;13.80;51.00;;;;;;5077698;28;20666;-50
2023/08/03 00:42:10;;;;;;;0.10;0.10;;;13.90;51.00;;;;;;5074768;28;20646;-47
2023/08/03 00:44:41;;;;;;;0.10;0.10;;;13.90;51.10;;;;;;5074744;28;20199;-49
2023/08/03 00:47:12;;;;;;;0.10;0.10;;;13.80;51.00;;;;;;5074307;28;20231;-46
2023/08/03 00:49:42;;;;;;;0.10;0.10;;;13.90;51.10;;;;;;5079416;28;20672;-46
2023/08/03 00:52:13;;;;;;;0.10;0.10;;;13.90;51.10;;;;;;5095186;28;20551;-45
2023/08/03 00:54:46;;;;;;;0.10;0.10;;;13.90;51.10;;;;;;5076522;28;20207;-45
2023/08/03 00:57:16;;;;;;;0.10;0.10;;;13.90;51.00;;;;;;5074813;28;20206;-46
2023/08/03 00:59:47;;;;;;;0.10;0.10;;;13.90;51.00;;;;;;5074541;28;20194;-46
2023/08/03 01:02:18;;;;;;;0.10;0.10;;;14.00;51.00;;;;;;5075836;28;20195;-48
2023/08/03 01:04:48;;;;;;;0.10;0.10;;;14.00;51.00;;;;;;5074175;28;20199;-46
2023/08/03 01:07:21;;;;;;;0.10;0.10;;;14.00;51.00;;;;;;5074237;28;20230;-48
2023/08/03 01:09:54;;;;;;;0.10;0.10;;;14.00;51.00;;;;;;5074445;28;20308;-50
2023/08/03 01:12:24;;;;;;;0.10;0.10;;;14.00;51.00;;;;;;5074770;28;20199;-57
2023/08/03 01:14:55;;;;;;;0.10;0.10;;;14.00;51.00;;;;;;5074691;28;20215;-51
2023/08/03 01:17:26;;;;;;;0.00;0.00;;;14.10;51.10;;;;;;5074468;28;20560;-51
2023/08/03 01:19:57;;;;;;;0.10;0.10;;;14.10;51.10;;;;;;5074652;28;20256;-49
2023/08/03 01:22:28;;;;;;;0.10;0.10;;;14.10;51.10;;;;;;5074439;28;20696;-47
2023/08/03 01:25:01;;;;;;;0.10;0.10;;;14.10;51.10;;;;;;5076625;28;20675;-51
2023/08/03 01:27:32;;;;;;;0.05;0.05;;;14.10;51.10;;;;;;5074307;28;20202;-50
2023/08/03 01:30:02;;;;;;;0.10;0.10;;;14.10;51.10;;;;;;5073882;28;20199;-46
2023/08/03 01:32:33;;;;;;;0.10;0.10;;;14.20;51.10;;;;;;5078565;28;20190;-50
2023/08/03 01:35:06;;;;;;;0.10;0.10;;;14.20;51.10;;;;;;5093599;28;20712;-49
2023/08/03 01:37:38;;;;;;;0.10;0.10;;;14.20;51.10;;;;;;5094055;28;20190;-53
2023/08/03 01:40:12;;;;;;;0.10;0.10;;;14.20;51.10;;;;;;5094225;28;20568;-59
2023/08/03 01:42:43;;;;;;;0.10;0.10;;;14.20;51.10;;;;;;5094128;28;20233;-51
2023/08/03 01:45:14;;;;;;;0.03;0.03;;;14.20;51.00;;;;;;5093903;28;20727;-50
2023/08/03 01:47:44;;;;;;;0.10;0.10;;;14.30;51.10;;;;;;5092730;28;20197;-51
2023/08/03 01:50:15;;;;;;;0.10;0.10;;;14.30;51.20;;;;;;5093605;28;20198;-50
2023/08/03 01:52:48;;;;;;;0.08;0.08;;;14.30;51.10;;;;;;5091743;28;20694;-54
2023/08/03 01:55:20;;;;;;;0.10;0.10;;;14.30;51.10;;;;;;5073899;28;20214;-46
2023/08/03 01:57:51;;;;;;;0.10;0.10;;;14.30;51.10;;;;;;5073852;28;20202;-49
2023/08/03 02:00:21;;;;;;;0.10;0.10;;;14.40;51.10;;;;;;5073827;28;20199;-63
2023/08/03 02:02:53;;;;;;;0.10;0.10;;;14.40;51.10;;;;;;5073606;28;20201;-54
2023/08/03 02:05:23;;;;;;;0.10;0.10;;;14.40;51.10;;;;;;5073130;28;20247;-46
2023/08/03 02:07:55;;;;;;;0.10;0.10;;;14.40;51.10;;;;;;5073322;28;20206;-48
2023/08/03 02:10:27;;;;;;;0.10;0.10;;;14.40;51.10;;;;;;5073273;28;20281;-52
2023/08/03 02:12:58;;;;;;;0.10;0.10;;;14.40;51.10;;;;;;5073708;28;20231;-50
2023/08/03 02:15:29;;;;;;;0.10;0.10;;;14.50;51.20;;;;;;5072969;28;20217;-47
2023/08/03 02:17:59;;;;;;;0.10;0.10;;;14.50;51.20;;;;;;5072852;28;20194;-54
2023/08/03 02:20:30;;;;;;;0.08;0.08;;;14.50;51.20;;;;;;5073040;28;20209;-46
2023/08/03 02:23:00;;;;;;;0.10;0.10;;;14.50;51.20;;;;;;5072984;28;20210;-51
2023/08/03 02:25:33;;;;;;;0.10;0.10;;;14.50;51.10;;;;;;5072827;28;20580;-46
2023/08/03 02:28:04;;;;;;;0.10;0.10;;;14.50;51.10;;;;;;5073089;28;20195;-52
2023/08/03 02:30:35;;;;;;;0.10;0.10;;;14.60;51.30;;;;;;5072684;28;20191;-51
2023/08/03 02:33:05;;;;;;;0.10;0.10;;;14.60;51.20;;;;;;5072581;28;20198;-56
2023/08/03 02:35:39;;;;;;;0.10;0.10;;;14.60;51.20;;;;;;5072761;28;20253;-48
2023/08/03 02:38:09;;;;;;;0.10;0.10;;;14.60;51.20;;;;;;5072725;28;20282;-56
2023/08/03 02:40:42;;;;;;;0.10;0.10;;;14.60;51.20;;;;;;5074661;28;20193;-55
2023/08/03 02:43:12;;;;;;;0.10;0.10;;;14.70;51.20;;;;;;5076012;28;20213;-51
2023/08/03 02:45:43;;;;;;;0.10;0.10;;;14.70;51.20;;;;;;5072410;28;20234;-48
2023/08/03 02:48:14;;;;;;;0.10;0.10;;;14.70;51.20;;;;;;5072485;28;20206;-50
2023/08/03 02:50:44;;;;;;;0.10;0.10;;;14.70;51.20;;;;;;5072645;28;20205;-50
2023/08/03 02:53:15;;;;;;;0.10;0.10;;;14.70;51.20;;;;;;5072439;28;20202;-46
2023/08/03 02:55:48;;;;;;;0.10;0.10;;;14.70;51.20;;;;;;5086535;28;20229;-50
2023/08/03 02:58:18;;;;;;;0.10;0.10;;;14.70;51.20;;;;;;5092704;28;20197;-47
2023/08/03 03:00:49;;;;;;;0.10;0.10;;;14.70;51.20;;;;;;5092615;28;20678;-51
2023/08/03 03:03:19;;;;;;;0.10;0.10;;;14.80;51.20;;;;;;5092810;28;20194;-46
2023/08/03 03:05:50;;;;;;;0.10;0.10;;;14.80;51.20;;;;;;5091968;28;20685;-48
2023/08/03 03:08:21;;;;;;;0.10;0.10;;;14.80;51.30;;;;;;5092440;28;20198;-47
2023/08/03 03:10:53;;;;;;;0.10;0.10;;;14.80;51.20;;;;;;5092605;28;20274;-46
2023/08/03 03:13:24;;;;;;;0.10;0.10;;;14.80;51.20;;;;;;5093037;28;20566;-56
2023/08/03 03:15:54;;;;;;;0.10;0.10;;;14.80;51.20;;;;;;5080400;28;20250;-48
2023/08/03 03:18:25;;;;;;;0.10;0.10;;;14.80;51.20;;;;;;5072072;28;20206;-50
2023/08/03 03:20:56;;;;;;;0.10;0.10;;;14.90;51.20;;;;;;5071999;28;20194;-49
2023/08/03 03:23:26;;;;;;;0.10;0.10;;;14.90;51.20;;;;;;5079291;28;20206;-55
2023/08/03 03:25:59;;;;;;;0.10;0.10;;;14.90;51.20;;;;;;5091488;28;20581;-48
2023/08/03 03:28:32;;;;;;;0.10;0.10;;;14.90;51.20;;;;;;5092017;28;20198;-48
2023/08/03 03:31:03;;;;;;;0.10;0.10;;;14.90;51.20;;;;;;5092481;28;20206;-46
2023/08/03 03:33:34;;;;;;;0.10;0.10;;;14.90;51.20;;;;;;5092362;28;20205;-46
2023/08/03 03:36:04;;;;;;;0.10;0.10;;;14.90;51.20;;;;;;5091960;28;20271;-46
2023/08/03 03:38:35;;;;;;;0.10;0.10;;;14.90;51.20;;;;;;5091618;28;20194;-46
2023/08/03 03:41:07;;;;;;;0.10;0.10;;;15.00;51.30;;;;;;5091919;28;20447;-47
2023/08/03 03:43:38;;;;;;;0.10;0.10;;;15.00;51.30;;;;;;5092130;28;20209;-48
2023/08/03 03:46:09;;;;;;;0.10;0.10;;;15.00;51.30;;;;;;5091903;28;20698;-46
2023/08/03 03:48:39;;;;;;;0.10;0.10;;;15.00;51.30;;;;;;5092052;28;20236;-46
2023/08/03 03:51:10;;;;;;;0.00;0.00;;;15.00;51.30;;;;;;5091796;28;20197;-47
2023/08/03 03:53:41;;;;;;;0.10;0.10;;;15.00;51.30;;;;;;5082420;28;20285;-45
2023/08/03 03:56:13;;;;;;;0.13;0.13;;;15.10;51.30;;;;;;5071658;28;20211;-46
2023/08/03 03:58:44;;;;;;;0.00;0.00;;;15.10;51.30;;;;;;5071846;28;20203;-46
2023/08/03 04:01:14;;;;;;;0.03;0.03;;;15.10;51.30;;;;;;5071611;28;20209;-45
2023/08/03 04:03:45;;;;;;;0.10;0.10;;;15.10;51.30;;;;;;5071821;28;20201;-51
2023/08/03 04:06:15;;;;;;;0.10;0.10;;;15.10;51.20;;;;;;5071351;28;20589;-46
2023/08/03 04:08:46;;;;;;;0.10;0.10;;;15.10;51.20;;;;;;5071722;28;20199;-47
2023/08/03 04:11:18;;;;;;;0.00;0.00;;;15.20;51.30;;;;;;5074681;28;20216;-48
2023/08/03 04:13:49;;;;;;;0.08;0.08;;;15.10;51.20;;;;;;5075799;28;20203;-52
2023/08/03 04:16:20;;;;;;;0.10;0.10;;;15.20;51.20;;;;;;5075063;28;20215;-52
2023/08/03 04:18:50;;;;;;;0.10;0.10;;;15.20;51.80;;;;;;5075337;28;20206;-46
2023/08/03 04:21:21;;;;;;;0.00;0.00;;;15.20;51.20;;;;;;5075549;28;20199;-46
2023/08/03 04:23:51;;;;;;;0.10;0.10;;;15.20;51.20;;;;;;5075335;28;20206;-47
2023/08/03 04:26:24;;;;;;;0.10;0.10;;;15.20;51.20;;;;;;5075126;28;20219;-54
2023/08/03 04:28:54;;;;;;;0.10;0.10;;;15.20;51.20;;;;;;5075202;28;20251;-48
2023/08/03 04:31:27;;;;;;;0.10;0.10;;;15.20;51.20;;;;;;5074842;28;20210;-55
2023/08/03 04:33:57;;;;;;;0.10;0.10;;;15.20;51.20;;;;;;5074940;28;20721;-45
2023/08/03 04:36:28;;;;;;;0.10;0.10;;;15.20;51.30;;;;;;5074920;28;20225;-48
2023/08/03 04:38:58;;;;;;;0.10;0.10;;;15.20;51.20;;;;;;5080207;28;20193;-46
2023/08/03 04:41:31;;;;;;;0.10;0.10;;;15.20;51.20;;;;;;5095346;28;20194;-48
2023/08/03 04:44:02;;;;;;;0.10;0.10;;;15.20;51.20;;;;;;5080630;28;20194;-47
2023/08/03 04:46:32;;;;;;;0.00;0.00;;;15.20;51.20;;;;;;5087588;28;20218;-52
2023/08/03 04:49:03;;;;;;;0.10;0.10;;;15.30;51.30;;;;;;5095354;28;20198;-49
2023/08/03 04:51:33;;;;;;;0.10;0.10;;;15.20;51.20;;;;;;5095210;28;20190;-48
2023/08/03 04:54:04;;;;;;;0.10;0.10;;;15.20;51.40;;;;;;5082360;28;20199;-46
2023/08/03 04:56:36;;;;;;;0.10;0.10;;;15.30;51.20;;;;;;5074516;28;20572;-48
2023/08/03 04:59:07;;;;;;;0.10;0.10;;;15.20;51.20;;;;;;5074719;28;20654;-47
2023/08/03 05:01:38;;;;;;;0.10;0.10;;;15.30;51.20;;;;;;5074263;28;20190;-48
2023/08/03 05:04:09;;;;;;;0.10;0.10;;;15.30;51.20;;;;;;5074410;28;20190;-48
2023/08/03 05:06:39;;;;;;;0.00;0.00;;;15.30;51.20;;;;;;5074295;28;20218;-45
2023/08/03 05:09:10;;;;;;;0.00;0.00;;;15.30;51.80;;;;;;5074277;28;20527;-48
2023/08/03 05:11:42;;;;;;;0.10;0.10;;;15.30;51.20;;;;;;5074064;28;20202;-47
2023/08/03 05:14:13;;;;;;;0.10;0.10;;;15.30;51.20;;;;;;5074643;28;20195;-55
2023/08/03 05:16:44;;;;;;;0.10;0.10;;;15.30;51.20;;;;;;5074044;28;20226;-45
2023/08/03 05:19:14;;;;;;;0.10;0.10;;;15.30;51.20;;;;;;5076356;28;20187;-47
2023/08/03 05:21:45;;;;;;;0.10;0.10;;;15.30;51.20;;;;;;5073078;28;20202;-45
2023/08/03 05:24:15;;;;;;;0.10;0.10;;;15.30;51.20;;;;;;5074408;28;20207;-49
2023/08/03 05:26:48;;;;;;;0.10;0.10;;;15.30;51.20;;;;;;5074370;28;20637;-50
2023/08/03 05:29:19;;;;;;;0.10;0.10;;;15.30;51.20;;;;;;5074721;28;20195;-52
2023/08/03 05:31:51;;;;;;;0.10;0.10;;;15.30;51.20;;;;;;5072427;28;20195;-48
2023/08/03 05:34:22;;;;;;;0.10;0.10;;;15.30;51.20;;;;;;5074129;28;20207;-52
2023/08/03 05:36:55;;;;;;;0.10;0.10;;;15.30;51.20;;;;;;5073989;28;20233;-49
2023/08/03 05:39:28;;;;;;;0.10;0.10;;;15.30;51.20;;;;;;5073989;28;20238;-51
2023/08/03 05:42:03;;;;;;;0.10;0.10;;;15.30;51.20;;;;;;5073356;28;20197;-48
2023/08/03 05:44:34;;;;;;;0.10;0.10;;;15.30;51.20;;;;;;5085984;28;20186;-51
2023/08/03 05:47:05;;;;;;;0.10;0.10;;;15.30;51.20;;;;;;5093220;28;20581;-52
2023/08/03 05:49:36;;;;;;;0.10;0.10;;;15.30;51.20;;;;;;5093710;28;20198;-53
2023/08/03 05:52:07;;;;;;;0.03;0.03;;;15.30;51.20;;;;;;5093735;28;20197;-51
2023/08/03 05:54:37;;;;;;;0.10;0.10;;;15.30;51.20;;;;;;5076410;28;20199;-54
2023/08/03 05:57:14;;;;;;;0.10;0.10;;;15.30;51.20;;;;;;5073223;28;20195;-52
2023/08/03 05:59:45;;;;;;;0.10;0.10;;;15.30;51.20;;;;;;5073346;28;20234;-54
2023/08/03 06:02:29;;;;;;;0.10;0.10;;;15.30;51.20;;;;;;5072787;28;20199;-51
2023/08/03 06:05:00;;;;;;;0.10;0.10;;;15.30;51.20;;;;;;5073090;28;20218;-48
2023/08/03 06:07:31;;;;;;;0.05;0.05;;;15.30;51.20;;;;;;5072850;28;20230;-55
2023/08/03 06:10:01;;;;;;;0.10;0.10;;;15.30;51.20;;;;;;5073248;28;20202;-49
2023/08/03 06:12:34;;;;;;;0.10;0.10;;;15.30;51.20;;;;;;5073583;28;20662;-49
2023/08/03 06:15:06;;;;;;;0.10;0.10;;;15.30;51.20;;;;;;5073141;28;20215;-48
2023/08/03 06:17:37;;;;;;;0.10;0.10;;;15.30;51.20;;;;;;5072814;28;20203;-49
2023/08/03 06:20:22;;;;;;;0.10;0.10;;;15.30;51.20;;;;;;5073060;28;20199;-48
2023/08/03 06:22:52;;;;;;;0.00;0.00;;;15.20;51.10;;;;;;5073049;28;20190;-48
2023/08/03 06:25:23;;;;;;;0.05;0.05;;;15.20;51.10;;;;;;5072464;28;20603;-48
2023/08/03 06:27:57;;;;;;;0.10;0.10;;;15.20;51.20;;;;;;5072807;28;20765;-49
2023/08/03 06:30:28;;;;;;;0.10;0.10;;;15.30;51.20;;;;;;5072925;28;20209;-50
2023/08/03 06:32:58;;;;;;;0.10;0.10;;;15.20;51.20;;;;;;5072474;28;20210;-49
2023/08/03 06:35:38;;;;;;;0.10;0.10;;;15.30;51.20;;;;;;5092253;28;20218;-48
2023/08/03 06:38:11;;;;;;;0.00;0.00;;;15.30;51.30;;;;;;5092593;28;20190;-49
2023/08/03 06:40:41;;;;;;;0.08;0.08;;;15.20;51.20;;;;;;5090179;28;20705;-48
2023/08/03 06:43:14;;;;;;;0.10;0.10;;;15.20;51.20;;;;;;5092905;28;20228;-49
2023/08/03 06:45:46;;;;;;;0.03;0.03;;;15.20;51.80;;;;;;5092969;28;20229;-48
2023/08/03 06:48:19;;;;;;;0.10;0.10;;;15.20;51.20;;;;;;5092190;28;20225;-51
2023/08/03 06:50:50;;;;;;;0.10;0.10;;;15.20;51.80;;;;;;5092752;28;20649;-47
2023/08/03 06:53:20;;;;;;;0.10;0.10;;;15.20;51.20;;;;;;5086103;28;20201;-49
2023/08/03 06:55:51;;;;;;;0.10;0.10;;;15.20;51.20;;;;;;5071552;28;20602;-49
2023/08/03 06:58:23;;;;;;;0.10;0.10;;;15.20;51.20;;;;;;5072174;28;20600;-53
2023/08/03 07:00:54;;;;;;;0.10;0.10;;;15.20;51.20;;;;;;5072150;28;20589;-50
2023/08/03 07:03:25;;;;;;;0.08;0.08;;;15.20;51.20;;;;;;5071900;28;20659;-50
2023/08/03 07:05:56;;;;;;;0.10;0.10;;;15.20;51.20;;;;;;5071915;28;20302;-54
2023/08/03 07:08:26;;;;;;;0.10;0.10;;;15.20;51.20;;;;;;5071968;28;20227;-50
2023/08/03 07:10:57;;;;;;;0.10;0.10;;;15.20;51.30;;;;;;5071379;28;20616;-48
2023/08/03 07:13:30;;;;;;;0.10;0.10;;;15.10;51.20;;;;;;5072316;28;20203;-49
2023/08/03 07:16:09;;;;;;;0.10;0.10;;;15.10;51.20;;;;;;5072103;28;20218;-49
2023/08/03 07:18:39;;;;;;;0.10;0.10;;;15.10;51.20;;;;;;5072032;28;20646;-49
2023/08/03 07:21:10;;;;;;;0.10;0.10;;;15.10;51.30;;;;;;5071661;28;20198;-50
2023/08/03 07:23:41;;;;;;;0.10;0.10;;;15.10;51.20;;;;;;5071342;28;20217;-48
2023/08/03 07:26:17;;;;;;;0.00;0.00;;;15.10;51.20;;;;;;5071226;28;20568;-51
2023/08/03 07:28:50;;;;;;;0.10;0.10;;;15.10;51.20;;;;;;5073688;28;20225;-48
2023/08/03 07:31:20;;;;;;;0.10;0.10;;;15.10;51.20;;;;;;5071384;28;20226;-52
2023/08/03 07:33:51;;;;;;;0.10;0.10;;;15.10;51.30;;;;;;5071356;28;20199;-56
2023/08/03 07:36:22;;;;;;;0.10;0.10;;;15.00;51.20;;;;;;5071116;28;20219;-49
2023/08/03 07:38:53;;;;;;;0.10;0.10;;;15.00;51.20;;;;;;5071313;28;20260;-49
2023/08/03 07:41:24;;;;;;;0.10;0.10;;;15.00;51.30;;;;;;5087026;28;20273;-48
2023/08/03 07:43:56;;;;;;;0.10;0.10;;;15.00;51.30;;;;;;5091611;28;20735;-49
2023/08/03 07:46:27;;;;;;;0.10;0.10;;;15.00;51.30;;;;;;5091098;28;20723;-48
2023/08/03 07:48:58;;;;;;;0.10;0.10;;;14.90;51.20;;;;;;5091388;28;20217;-49
2023/08/03 07:51:29;;;;;;;0.10;0.10;;;15.00;51.30;;;;;;5091593;28;20197;-49
2023/08/03 07:54:00;;;;;;;0.10;0.10;;;15.00;51.30;;;;;;5079393;28;20563;-48
2023/08/03 07:56:30;;;;;;;0.10;0.10;;;14.90;51.30;;;;;;5071820;28;20215;-50
2023/08/03 07:59:04;;;;;;;0.10;0.10;;;14.90;51.30;;;;;;5071443;28;20198;-48
2023/08/03 08:01:35;;;;;;;0.10;0.10;;;14.90;51.30;;;;;;5071356;28;20658;-52
2023/08/03 08:04:06;;;;;;;0.10;0.10;;;14.90;51.30;;;;;;5071081;28;20195;-49
2023/08/03 08:06:37;;;;;;;0.10;0.10;;;14.90;51.30;;;;;;5070856;28;20250;-48
2023/08/03 08:09:07;;;;;;;0.10;0.10;;;14.90;51.30;;;;;;5070443;28;20254;-49
2023/08/03 08:11:38;;;;;;;0.10;0.10;;;14.90;51.30;;;;;;5071933;28;20760;-51
2023/08/03 08:14:10;;;;;;;0.10;0.10;;;14.90;51.40;;;;;;5071995;28;20552;-48
2023/08/03 08:16:41;;;;;;;0.10;0.10;;;14.80;51.30;;;;;;5071315;28;20788;-49
2023/08/03 08:19:12;;;;;;;0.10;0.10;;;14.80;51.40;;;;;;5071149;28;20559;-48
2023/08/03 08:21:42;;;;;;;0.10;0.10;;;14.80;52.00;;;;;;5071231;28;20206;-48
2023/08/03 08:24:13;;;;;;;0.10;0.10;;;14.80;51.40;;;;;;5070612;28;20214;-49
2023/08/03 08:26:43;;;;;;;0.10;0.10;;;14.80;51.40;;;;;;5071252;28;20214;-49
2023/08/03 08:29:16;;;;;;;0.10;0.10;;;14.80;51.40;;;;;;5071403;28;20231;-48
2023/08/03 08:31:47;;;;;;;0.10;0.10;;;14.80;51.40;;;;;;5071117;28;20206;-52
2023/08/03 08:34:17;;;;;;;0.10;0.10;;;14.80;51.50;;;;;;5071250;28;20187;-50
2023/08/03 08:36:51;;;;;;;0.10;0.10;;;14.80;51.40;;;;;;5071417;28;20211;-51
2023/08/03 08:39:22;;;;;;;0.10;0.10;;;14.80;51.40;;;;;;5071008;28;20195;-57
2023/08/03 08:41:52;;;;;;;0.10;0.10;;;14.80;51.50;;;;;;5077211;28;20190;-52
2023/08/03 08:44:25;;;;;;;0.10;0.10;;;14.70;51.40;;;;;;5091260;28;20228;-48
2023/08/03 08:46:55;;;;;;;0.10;0.10;;;14.70;51.40;;;;;;5090550;28;20206;-48
2023/08/03 08:49:26;;;;;;;0.10;0.10;;;14.70;51.40;;;;;;5090898;28;20245;-49
2023/08/03 08:51:59;;;;;;;0.10;0.10;;;14.70;51.50;;;;;;5090929;28;20654;-47
2023/08/03 08:54:34;;;;;;;0.10;0.10;;;14.70;51.50;;;;;;5074219;28;20203;-48
2023/08/03 08:57:05;;;;;;;0.10;0.10;;;14.70;51.50;;;;;;5073676;28;20535;-49
2023/08/03 08:59:37;;;;;;;0.10;0.10;;;14.60;51.50;;;;;;5075113;28;20202;-51
2023/08/03 09:02:09;;;;;;;0.10;0.10;;;14.60;51.50;;;;;;5074565;28;20199;-50
2023/08/03 09:04:40;;;;;;;0.10;0.10;;;14.60;51.50;;;;;;5074703;28;20194;-48
2023/08/03 09:07:18;;;;;;;0.05;0.05;;;14.60;51.50;;;;;;5074664;28;20195;-48
2023/08/03 09:09:49;;;;;;;0.10;0.10;;;14.60;51.50;;;;;;5074001;28;20218;-45
2023/08/03 09:12:28;;;;;;;0.10;0.10;;;14.60;51.50;;;;;;5074910;28;20669;-46
2023/08/03 09:15:00;;;;;;;0.10;0.10;;;14.60;51.50;;;;;;5074192;28;20677;-47
2023/08/03 09:17:31;;;;;;;0.10;0.10;;;14.60;51.50;;;;;;5073767;28;20195;-45
2023/08/03 09:20:02;;;;;;;0.10;0.10;;;14.60;51.50;;;;;;5074181;28;20213;-46
2023/08/03 09:22:42;;;;;;;0.10;0.10;;;14.60;51.50;;;;;;5073793;28;20650;-45
2023/08/03 09:25:14;;;;;;;0.10;0.10;;;14.50;51.40;;;;;;5091934;28;20621;-45
2023/08/03 09:27:54;;;;;;;0.10;0.10;;;14.50;51.50;;;;;;5094336;28;20601;-45
2023/08/03 09:30:27;;;;;;;0.10;0.10;;;14.50;51.50;;;;;;5094131;28;20205;-47
2023/08/03 09:32:57;;;;;;;0.10;0.10;;;14.50;51.50;;;;;;5094057;28;20206;-47
2023/08/03 09:35:28;;;;;;;0.10;0.10;;;14.50;51.50;;;;;;5093487;28;20214;-46
2023/08/03 09:37:59;;;;;;;0.10;0.10;;;14.50;51.60;;;;;;5093569;28;20240;-48
2023/08/03 09:40:43;;;;;;;0.10;0.10;;;14.50;51.60;;;;;;5094132;28;20549;-46
2023/08/03 09:43:15;;;;;;;0.10;0.10;;;14.50;51.60;;;;;;5094067;28;20225;-50
2023/08/03 09:45:48;;;;;;;0.10;0.10;;;14.50;51.60;;;;;;5094257;28;20576;-47
2023/08/03 09:48:20;;;;;;;0.10;0.10;;;14.40;51.60;;;;;;5093531;28;20214;-50
2023/08/03 09:50:54;;;;;;;0.10;0.10;;;14.40;51.60;;;;;;5093553;28;20194;-49
2023/08/03 09:53:26;;;;;;;0.10;0.10;;;14.40;51.50;;;;;;5085704;28;20202;-49
2023/08/03 09:56:00;;;;;;;0.10;0.10;;;14.40;51.50;;;;;;5073504;28;20223;-47
2023/08/03 09:58:40;;;;;;;0.10;0.10;;;14.40;51.50;;;;;;5073336;28;20209;-49
2023/08/03 10:01:14;;;;;;;0.10;0.10;;;14.40;51.60;;;;;;5073841;28;20290;-46
2023/08/03 10:03:48;;;;;;;0.10;0.10;;;14.40;51.60;;;;;;5073338;28;20193;-46
2023/08/03 10:06:21;;;;;;;0.10;0.10;;;14.40;51.60;;;;;;5073223;28;20217;-47
2023/08/03 10:08:57;;;;;;;0.10;0.10;;;14.30;52.20;;;;;;5071748;28;20214;-46
2023/08/03 10:11:34;;;;;;;0.10;0.10;;;14.40;51.70;;;;;;5073064;28;20198;-45
2023/08/03 10:14:06;;;;;;;0.10;0.10;;;14.30;51.60;;;;;;5073403;28;20195;-50
2023/08/03 10:16:40;;;;;;;0.10;0.10;;;14.30;51.60;;;;;;5073318;28;20301;-46
2023/08/03 10:19:12;;;;;;;0.10;0.10;;;14.30;51.60;;;;;;5073699;28;20600;-46
2023/08/03 10:21:43;;;;;;;0.10;0.10;;;14.30;51.70;;;;;;5073343;28;20205;-45
2023/08/03 10:24:15;;;;;;;0.10;0.10;;;14.30;51.70;;;;;;5072420;28;20207;-45
2023/08/03 10:26:51;;;;;;;0.10;0.10;;;14.30;51.70;;;;;;5073211;28;20221;-46
2023/08/03 10:29:57;;;;;;;0.10;0.10;;;14.30;51.70;;;;;;5089047;28;20681;-48
2023/08/03 10:32:30;;;;;;;0.10;0.10;;;14.20;51.70;;;;;;5093024;28;20193;-45
2023/08/03 10:35:47;;;;;;;0.10;0.10;;;14.20;51.60;;;;;;5092883;28;20224;-45
2023/08/03 10:38:22;;;;;;;0.10;0.10;;;14.20;51.60;;;;;;5056723;28;20696;-45
2023/08/03 10:41:13;;;;;;;0.10;0.10;;;14.20;51.60;;;;;;5093152;28;20602;-47
2023/08/03 10:44:03;;;;;;;0.10;0.10;;;14.20;51.60;;;;;;5092480;28;20193;-46
2023/08/03 10:46:35;;;;;;;0.10;0.10;;;14.20;51.70;;;;;;5092720;28;20214;-46
2023/08/03 10:49:48;;;;;;;0.10;0.10;;;14.20;51.70;;;;;;5092584;28;20739;-48
2023/08/03 10:52:25;;;;;;;0.10;0.10;;;14.20;51.80;;;;;;5092044;28;20190;-46
2023/08/03 10:54:56;;;;;;;0.10;0.10;;;14.10;51.70;;;;;;5088369;28;20201;-45
2023/08/03 10:57:29;;;;;;;0.10;0.10;;;14.10;51.70;;;;;;5092794;28;20198;-45
2023/08/03 11:00:01;;;;;;;0.10;0.10;;;14.10;51.80;;;;;;5092772;28;20350;-46
2023/08/03 11:02:33;;;;;;;0.10;0.10;;;14.10;51.80;;;;;;5092411;28;20664;-46
2023/08/03 11:05:07;;;;;;;0.10;0.10;;;14.10;51.80;;;;;;5076576;28;20226;-45
2023/08/03 11:07:39;;;;;;;0.10;0.10;;;14.10;51.80;;;;;;5071610;28;20190;-45
2023/08/03 11:10:11;;;;;;;0.10;0.10;;;14.10;51.80;;;;;;5071494;28;20238;-46
2023/08/03 11:12:43;;;;;;;0.10;0.10;;;14.10;51.80;;;;;;5071556;28;20295;-45
2023/08/03 11:15:19;;;;;;;0.10;0.10;;;14.10;51.80;;;;;;5071369;28;20622;-45
2023/08/03 11:17:51;;;;;;;0.10;0.10;;;14.10;51.90;;;;;;5082462;28;20194;-47
2023/08/03 11:20:24;;;;;;;0.10;0.10;;;14.10;51.90;;;;;;5072433;28;20207;-56
2023/08/03 11:22:55;;;;;;;0.10;0.10;;;14.10;51.80;;;;;;5074263;28;20210;-56
2023/08/03 11:25:26;;;;;;;0.10;0.10;;;14.10;51.80;;;;;;5091671;28;20768;-49
2023/08/03 11:27:57;;;;;;;0.10;0.10;;;14.10;51.90;;;;;;5090046;28;20745;-53
2023/08/03 11:30:27;;;;;;;0.10;0.10;;;14.10;51.90;;;;;;5074239;28;20222;-45
2023/08/03 11:33:00;;;;;;;0.10;0.10;;;14.00;51.90;;;;;;5072117;28;20198;-45
2023/08/03 11:35:33;;;;;;;0.10;0.10;;;14.00;51.90;;;;;;5091693;28;20213;-46
2023/08/03 11:38:07;;;;;;;0.10;0.10;;;14.00;51.90;;;;;;5092705;28;20201;-49
2023/08/03 11:40:39;;;;;;;0.10;0.10;;;14.00;51.90;;;;;;5112226;28;20203;-46
2023/08/03 11:43:10;;;;;;;0.10;0.10;;;14.00;52.00;;;;;;5112352;28;20197;-49
2023/08/03 11:45:45;;;;;;;0.10;0.10;;;14.00;52.00;;;;;;5111509;28;20232;-57
2023/08/03 11:48:19;;;;;;;0.10;0.10;;;14.00;52.00;;;;;;5111680;28;20198;-46
2023/08/03 11:50:51;;;;;;;0.10;0.10;;;13.90;51.90;;;;;;5111410;28;20723;-45
2023/08/03 11:53:28;;;;;;;0.10;0.10;;;14.00;52.00;;;;;;5100797;28;20197;-44
2023/08/03 11:55:59;;;;;;;0.10;0.10;;;13.90;51.90;;;;;;5089985;28;20205;-45
2023/08/03 11:58:29;;;;;;;0.10;0.10;;;13.90;51.90;;;;;;5094734;28;20189;-44
2023/08/03 12:01:02;;;;;;;0.20;0.20;;;13.90;52.00;;;;;;5111694;28;20193;-45
2023/08/03 12:03:36;;;;;;;0.10;0.10;;;13.90;51.90;;;;;;5111204;28;20549;-46
2023/08/03 12:06:09;;;;;;;0.10;0.10;;;13.90;51.90;;;;;;5088069;28;20402;-46
2023/08/03 12:08:45;;;;;;;0.10;0.10;;;13.90;51.90;;;;;;5075294;28;20675;-56
2023/08/03 12:11:19;;;;;;;0.10;0.10;;;13.90;52.00;;;;;;5080597;28;20195;-46
2023/08/03 12:13:50;;;;;;;0.10;0.10;;;13.90;52.00;;;;;;5083228;28;20193;-51
2023/08/03 12:16:20;;;;;;;0.10;0.10;;;13.90;52.00;;;;;;5092969;28;20230;-55
2023/08/03 12:18:51;;;;;;;0.10;0.10;;;13.90;52.00;;;;;;5091516;28;20202;-51
2023/08/03 12:21:24;;;;;;;0.10;0.10;;;13.90;52.00;;;;;;5091576;28;20646;-56
2023/08/03 12:23:54;;;;;;;0.10;0.10;;;13.90;52.00;;;;;;5091233;28;20202;-53
2023/08/03 12:26:25;;;;;;;0.10;0.10;;;13.80;52.00;;;;;;5077240;28;20210;-54
2023/08/03 12:28:55;;;;;;;0.10;0.10;;;13.80;52.00;;;;;;5071378;28;20202;-56
2023/08/03 12:31:26;;;;;;;0.10;0.10;;;13.80;52.00;;;;;;5072976;28;20203;-56
2023/08/03 12:33:57;;;;;;;0.10;0.10;;;13.90;52.10;;;;;;5086120;28;20579;-55
2023/08/03 12:36:30;;;;;;;0.10;0.10;;;13.80;52.10;;;;;;5095683;28;20222;-49
2023/08/03 12:39:01;;;;;;;0.10;0.10;;;13.80;52.10;;;;;;5095180;28;20210;-53
2023/08/03 12:41:32;;;;;;;0.10;0.10;;;13.80;52.00;;;;;;5095374;28;20533;-55
2023/08/03 12:44:02;;;;;;;0.10;0.10;;;13.80;52.00;;;;;;5095075;28;20194;-56
2023/08/03 12:46:33;;;;;;;0.10;0.10;;;13.80;52.10;;;;;;5095179;28;20300;-48
2023/08/03 12:49:04;;;;;;;0.10;0.10;;;13.80;52.00;;;;;;5094886;28;20740;-48
2023/08/03 12:51:37;;;;;;;0.10;0.10;;;13.80;52.00;;;;;;5094571;28;20233;-53
2023/08/03 12:54:08;;;;;;;0.10;0.10;;;13.80;52.10;;;;;;5081747;28;20231;-53
2023/08/03 12:56:40;;;;;;;0.10;0.10;;;13.80;52.10;;;;;;5074603;28;20226;-52
2023/08/03 12:59:11;;;;;;;0.10;0.10;;;13.80;52.10;;;;;;5074825;28;20226;-54
2023/08/03 13:01:41;;;;;;;0.10;0.10;;;13.80;52.10;;;;;;5074861;28;20607;-58
2023/08/03 13:04:12;;;;;;;0.10;0.10;;;13.80;52.10;;;;;;5074509;28;20194;-55
2023/08/03 13:06:45;;;;;;;0.10;0.10;;;13.80;52.10;;;;;;5074591;28;20218;-54
2023/08/03 13:09:15;;;;;;;0.10;0.10;;;13.80;52.10;;;;;;5074652;28;20569;-55
2023/08/03 13:11:46;;;;;;;0.10;0.10;;;13.70;52.10;;;;;;5074401;28;20612;-53
2023/08/03 13:14:16;;;;;;;0.10;0.10;;;13.70;52.10;;;;;;5074792;28;20199;-55